sensor_id;sensor_type;location;lat;lon;timestamp;P1;durP1;ratioP1;P2;durP2;ratioP2
63688;SDS011;54895;40.928;14.480;2023-05-07T00:00:41;23.60;;;17.23;;
63688;SDS011;54895;40.928;14.480;2023-05-07T00:03:08;21.80;;;16.75;;
63688;SDS011;54895;40.928;14.480;2023-05-07T00:05:34;23.85;;;17.35;;
63688;SDS011;54895;40.928;14.480;2023-05-07T00:08:01;27.13;;;18.33;;
63688;SDS011;54895;40.928;14.480;2023-05-07T00:10:28;23.73;;;16.75;;
63688;SDS011;54895;40.928;14.480;2023-05-07T00:12:54;22.75;;;15.35;;
63688;SDS011;54895;40.928;14.480;2023-05-07T00:15:20;21.67;;;15.35;;
63688;SDS011;54895;40.928;14.480;2023-05-07T00:17:47;27.73;;;15.45;;
63688;SDS011;54895;40.928;14.480;2023-05-07T00:20:13;22.95;;;15.57;;
63688;SDS011;54895;40.928;14.480;2023-05-07T00:22:39;19.98;;;14.73;;
63688;SDS011;54895;40.928;14.480;2023-05-07T00:25:06;24.55;;;16.25;;
63688;SDS011;54895;40.928;14.480;2023-05-07T00:27:33;25.60;;;16.80;;
63688;SDS011;54895;40.928;14.480;2023-05-07T00:30:00;21.75;;;15.73;;
63688;SDS011;54895;40.928;14.480;2023-05-07T00:32:28;23.25;;;16.20;;
63688;SDS011;54895;40.928;14.480;2023-05-07T00:34:55;23.20;;;16.33;;
63688;SDS011;54895;40.928;14.480;2023-05-07T00:37:26;22.58;;;15.60;;
63688;SDS011;54895;40.928;14.480;2023-05-07T00:39:54;25.35;;;16.27;;
63688;SDS011;54895;40.928;14.480;2023-05-07T00:42:22;23.30;;;16.27;;
63688;SDS011;54895;40.928;14.480;2023-05-07T00:44:50;21.52;;;16.20;;
63688;SDS011;54895;40.928;14.480;2023-05-07T00:47:18;19.70;;;14.52;;
63688;SDS011;54895;40.928;14.480;2023-05-07T00:49:45;22.58;;;16.13;;
63688;SDS011;54895;40.928;14.480;2023-05-07T00:52:14;20.83;;;14.93;;
63688;SDS011;54895;40.928;14.480;2023-05-07T00:54:43;22.52;;;15.63;;
63688;SDS011;54895;40.928;14.480;2023-05-07T00:57:11;26.50;;;18.40;;
63688;SDS011;54895;40.928;14.480;2023-05-07T00:59:39;23.67;;;16.17;;
63688;SDS011;54895;40.928;14.480;2023-05-07T01:02:07;26.77;;;16.38;;
63688;SDS011;54895;40.928;14.480;2023-05-07T01:04:34;24.17;;;16.75;;
63688;SDS011;54895;40.928;14.480;2023-05-07T01:07:03;27.02;;;16.52;;
63688;SDS011;54895;40.928;14.480;2023-05-07T01:09:32;26.15;;;18.85;;
63688;SDS011;54895;40.928;14.480;2023-05-07T01:12:53;25.58;;;17.40;;
63688;SDS011;54895;40.928;14.480;2023-05-07T01:15:21;29.25;;;18.55;;
63688;SDS011;54895;40.928;14.480;2023-05-07T01:17:50;26.42;;;18.65;;
63688;SDS011;54895;40.928;14.480;2023-05-07T01:20:24;26.92;;;18.67;;
63688;SDS011;54895;40.928;14.480;2023-05-07T01:22:54;29.13;;;18.80;;
63688;SDS011;54895;40.928;14.480;2023-05-07T01:25:23;26.35;;;18.83;;
63688;SDS011;54895;40.928;14.480;2023-05-07T01:27:53;29.42;;;20.45;;
63688;SDS011;54895;40.928;14.480;2023-05-07T01:30:25;29.58;;;19.65;;
63688;SDS011;54895;40.928;14.480;2023-05-07T01:33:01;33.55;;;20.42;;
63688;SDS011;54895;40.928;14.480;2023-05-07T01:35:40;29.60;;;20.15;;
63688;SDS011;54895;40.928;14.480;2023-05-07T01:38:12;32.00;;;20.02;;
63688;SDS011;54895;40.928;14.480;2023-05-07T01:40:40;30.75;;;20.80;;
63688;SDS011;54895;40.928;14.480;2023-05-07T01:43:08;28.08;;;19.92;;
63688;SDS011;54895;40.928;14.480;2023-05-07T01:45:37;29.10;;;19.00;;
63688;SDS011;54895;40.928;14.480;2023-05-07T01:48:07;35.22;;;20.20;;
63688;SDS011;54895;40.928;14.480;2023-05-07T01:50:36;30.35;;;20.17;;
63688;SDS011;54895;40.928;14.480;2023-05-07T01:53:04;30.83;;;21.27;;
63688;SDS011;54895;40.928;14.480;2023-05-07T01:55:31;30.92;;;20.60;;
63688;SDS011;54895;40.928;14.480;2023-05-07T01:57:59;32.90;;;21.13;;
63688;SDS011;54895;40.928;14.480;2023-05-07T02:00:26;31.55;;;20.73;;
63688;SDS011;54895;40.928;14.480;2023-05-07T02:02:54;30.27;;;21.15;;
63688;SDS011;54895;40.928;14.480;2023-05-07T02:05:33;31.15;;;20.38;;
63688;SDS011;54895;40.928;14.480;2023-05-07T02:08:11;31.15;;;21.17;;
63688;SDS011;54895;40.928;14.480;2023-05-07T02:10:38;31.75;;;21.63;;
63688;SDS011;54895;40.928;14.480;2023-05-07T02:13:07;33.35;;;21.48;;
63688;SDS011;54895;40.928;14.480;2023-05-07T02:15:35;35.80;;;22.35;;
63688;SDS011;54895;40.928;14.480;2023-05-07T02:18:04;36.15;;;23.13;;
63688;SDS011;54895;40.928;14.480;2023-05-07T02:20:33;36.92;;;23.48;;
63688;SDS011;54895;40.928;14.480;2023-05-07T02:23:01;37.40;;;22.40;;
63688;SDS011;54895;40.928;14.480;2023-05-07T02:25:30;33.35;;;22.30;;
63688;SDS011;54895;40.928;14.480;2023-05-07T02:31:39;30.73;;;19.95;;
63688;SDS011;54895;40.928;14.480;2023-05-07T02:34:07;32.17;;;20.15;;
63688;SDS011;54895;40.928;14.480;2023-05-07T02:36:34;29.85;;;19.70;;
63688;SDS011;54895;40.928;14.480;2023-05-07T02:39:07;30.75;;;19.73;;
63688;SDS011;54895;40.928;14.480;2023-05-07T02:41:34;32.75;;;22.30;;
63688;SDS011;54895;40.928;14.480;2023-05-07T02:44:01;29.80;;;20.13;;
63688;SDS011;54895;40.928;14.480;2023-05-07T02:46:28;30.30;;;19.17;;
63688;SDS011;54895;40.928;14.480;2023-05-07T02:49:01;31.23;;;19.80;;
63688;SDS011;54895;40.928;14.480;2023-05-07T02:51:29;31.45;;;20.17;;
63688;SDS011;54895;40.928;14.480;2023-05-07T02:54:00;30.13;;;20.25;;
63688;SDS011;54895;40.928;14.480;2023-05-07T02:56:28;27.52;;;17.65;;
63688;SDS011;54895;40.928;14.480;2023-05-07T02:58:55;30.40;;;18.48;;
63688;SDS011;54895;40.928;14.480;2023-05-07T03:01:42;29.45;;;18.48;;
63688;SDS011;54895;40.928;14.480;2023-05-07T03:04:12;27.15;;;18.52;;
63688;SDS011;54895;40.928;14.480;2023-05-07T03:06:39;30.88;;;20.45;;
63688;SDS011;54895;40.928;14.480;2023-05-07T03:09:06;31.60;;;20.60;;
63688;SDS011;54895;40.928;14.480;2023-05-07T03:11:34;32.88;;;21.38;;
63688;SDS011;54895;40.928;14.480;2023-05-07T03:14:02;29.52;;;20.10;;
63688;SDS011;54895;40.928;14.480;2023-05-07T03:16:29;32.85;;;20.30;;
63688;SDS011;54895;40.928;14.480;2023-05-07T03:18:56;27.45;;;19.25;;
63688;SDS011;54895;40.928;14.480;2023-05-07T03:21:24;31.05;;;20.45;;
63688;SDS011;54895;40.928;14.480;2023-05-07T03:23:52;31.15;;;19.77;;
63688;SDS011;54895;40.928;14.480;2023-05-07T03:26:20;28.17;;;18.83;;
63688;SDS011;54895;40.928;14.480;2023-05-07T03:31:39;28.33;;;18.08;;
63688;SDS011;54895;40.928;14.480;2023-05-07T03:34:07;30.50;;;19.60;;
63688;SDS011;54895;40.928;14.480;2023-05-07T03:36:35;32.88;;;18.52;;
63688;SDS011;54895;40.928;14.480;2023-05-07T03:39:05;34.50;;;20.33;;
63688;SDS011;54895;40.928;14.480;2023-05-07T03:41:38;28.50;;;19.02;;
63688;SDS011;54895;40.928;14.480;2023-05-07T03:44:09;26.63;;;18.10;;
63688;SDS011;54895;40.928;14.480;2023-05-07T03:46:37;29.38;;;18.90;;
63688;SDS011;54895;40.928;14.480;2023-05-07T03:49:05;27.35;;;17.15;;
63688;SDS011;54895;40.928;14.480;2023-05-07T03:51:33;26.05;;;16.75;;
63688;SDS011;54895;40.928;14.480;2023-05-07T03:54:04;24.05;;;16.23;;
63688;SDS011;54895;40.928;14.480;2023-05-07T03:56:33;25.70;;;17.08;;
63688;SDS011;54895;40.928;14.480;2023-05-07T03:59:02;28.42;;;18.20;;
63688;SDS011;54895;40.928;14.480;2023-05-07T04:01:30;31.67;;;19.67;;
63688;SDS011;54895;40.928;14.480;2023-05-07T04:03:57;32.35;;;19.77;;
63688;SDS011;54895;40.928;14.480;2023-05-07T04:06:25;35.42;;;19.45;;
63688;SDS011;54895;40.928;14.480;2023-05-07T04:08:54;32.17;;;20.80;;
63688;SDS011;54895;40.928;14.480;2023-05-07T04:11:22;27.90;;;19.17;;
63688;SDS011;54895;40.928;14.480;2023-05-07T04:13:50;31.35;;;18.33;;
63688;SDS011;54895;40.928;14.480;2023-05-07T04:16:21;31.33;;;18.83;;
63688;SDS011;54895;40.928;14.480;2023-05-07T04:18:49;30.48;;;18.20;;
63688;SDS011;54895;40.928;14.480;2023-05-07T04:21:17;31.45;;;18.70;;
63688;SDS011;54895;40.928;14.480;2023-05-07T04:23:47;29.63;;;19.90;;
63688;SDS011;54895;40.928;14.480;2023-05-07T04:26:15;32.13;;;20.30;;
63688;SDS011;54895;40.928;14.480;2023-05-07T04:31:58;37.65;;;22.27;;
63688;SDS011;54895;40.928;14.480;2023-05-07T04:34:26;35.08;;;22.20;;
63688;SDS011;54895;40.928;14.480;2023-05-07T04:36:53;38.33;;;24.45;;
63688;SDS011;54895;40.928;14.480;2023-05-07T04:39:20;33.25;;;23.63;;
63688;SDS011;54895;40.928;14.480;2023-05-07T04:41:49;39.35;;;24.80;;
63688;SDS011;54895;40.928;14.480;2023-05-07T04:44:16;42.72;;;25.13;;
63688;SDS011;54895;40.928;14.480;2023-05-07T04:46:45;44.33;;;27.80;;
63688;SDS011;54895;40.928;14.480;2023-05-07T04:49:12;43.65;;;27.67;;
63688;SDS011;54895;40.928;14.480;2023-05-07T04:51:40;48.38;;;28.60;;
63688;SDS011;54895;40.928;14.480;2023-05-07T04:54:10;44.25;;;26.33;;
63688;SDS011;54895;40.928;14.480;2023-05-07T04:56:38;50.83;;;27.83;;
63688;SDS011;54895;40.928;14.480;2023-05-07T04:59:05;52.60;;;29.67;;
63688;SDS011;54895;40.928;14.480;2023-05-07T05:01:34;47.00;;;28.00;;
63688;SDS011;54895;40.928;14.480;2023-05-07T05:04:02;46.20;;;26.85;;
63688;SDS011;54895;40.928;14.480;2023-05-07T05:06:29;49.88;;;28.27;;
63688;SDS011;54895;40.928;14.480;2023-05-07T05:08:56;50.83;;;28.15;;
63688;SDS011;54895;40.928;14.480;2023-05-07T05:11:25;46.33;;;27.45;;
63688;SDS011;54895;40.928;14.480;2023-05-07T05:13:53;50.00;;;28.63;;
63688;SDS011;54895;40.928;14.480;2023-05-07T05:16:21;48.75;;;28.45;;
63688;SDS011;54895;40.928;14.480;2023-05-07T05:18:48;45.60;;;26.55;;
63688;SDS011;54895;40.928;14.480;2023-05-07T05:21:18;45.50;;;27.35;;
63688;SDS011;54895;40.928;14.480;2023-05-07T05:23:48;48.00;;;27.52;;
63688;SDS011;54895;40.928;14.480;2023-05-07T05:26:20;47.35;;;26.77;;
63688;SDS011;54895;40.928;14.480;2023-05-07T05:31:53;42.22;;;26.05;;
63688;SDS011;54895;40.928;14.480;2023-05-07T05:34:19;46.60;;;27.13;;
63688;SDS011;54895;40.928;14.480;2023-05-07T05:36:45;41.25;;;25.88;;
63688;SDS011;54895;40.928;14.480;2023-05-07T05:39:13;46.03;;;26.45;;
63688;SDS011;54895;40.928;14.480;2023-05-07T05:41:40;45.55;;;26.90;;
63688;SDS011;54895;40.928;14.480;2023-05-07T05:44:07;43.13;;;26.23;;
63688;SDS011;54895;40.928;14.480;2023-05-07T05:46:33;41.47;;;25.73;;
63688;SDS011;54895;40.928;14.480;2023-05-07T05:49:00;40.03;;;24.67;;
63688;SDS011;54895;40.928;14.480;2023-05-07T05:51:26;43.03;;;24.65;;
63688;SDS011;54895;40.928;14.480;2023-05-07T05:53:53;44.63;;;26.60;;
63688;SDS011;54895;40.928;14.480;2023-05-07T05:56:19;46.35;;;28.70;;
63688;SDS011;54895;40.928;14.480;2023-05-07T05:58:47;42.58;;;24.25;;
63688;SDS011;54895;40.928;14.480;2023-05-07T06:01:14;40.38;;;22.60;;
63688;SDS011;54895;40.928;14.480;2023-05-07T06:03:41;41.78;;;25.23;;
63688;SDS011;54895;40.928;14.480;2023-05-07T06:06:13;41.55;;;24.83;;
63688;SDS011;54895;40.928;14.480;2023-05-07T06:08:41;36.53;;;24.63;;
63688;SDS011;54895;40.928;14.480;2023-05-07T06:11:09;42.13;;;25.52;;
63688;SDS011;54895;40.928;14.480;2023-05-07T06:13:38;39.70;;;23.80;;
63688;SDS011;54895;40.928;14.480;2023-05-07T06:16:06;38.92;;;22.92;;
63688;SDS011;54895;40.928;14.480;2023-05-07T06:18:32;41.80;;;24.38;;
63688;SDS011;54895;40.928;14.480;2023-05-07T06:20:58;36.40;;;23.30;;
63688;SDS011;54895;40.928;14.480;2023-05-07T06:23:29;36.00;;;22.27;;
63688;SDS011;54895;40.928;14.480;2023-05-07T06:25:55;34.80;;;23.63;;
63688;SDS011;54895;40.928;14.480;2023-05-07T06:28:27;41.35;;;23.95;;
63688;SDS011;54895;40.928;14.480;2023-05-07T06:30:55;42.50;;;24.33;;
63688;SDS011;54895;40.928;14.480;2023-05-07T06:33:23;32.97;;;21.70;;
63688;SDS011;54895;40.928;14.480;2023-05-07T06:35:51;34.67;;;22.67;;
63688;SDS011;54895;40.928;14.480;2023-05-07T06:38:18;34.85;;;20.27;;
63688;SDS011;54895;40.928;14.480;2023-05-07T06:40:48;35.85;;;23.13;;
63688;SDS011;54895;40.928;14.480;2023-05-07T06:43:18;34.60;;;21.67;;
63688;SDS011;54895;40.928;14.480;2023-05-07T06:45:56;35.97;;;21.58;;
63688;SDS011;54895;40.928;14.480;2023-05-07T06:48:24;35.00;;;21.52;;
63688;SDS011;54895;40.928;14.480;2023-05-07T06:50:59;37.35;;;22.30;;
63688;SDS011;54895;40.928;14.480;2023-05-07T06:53:27;37.00;;;24.02;;
63688;SDS011;54895;40.928;14.480;2023-05-07T06:55:56;37.67;;;23.80;;
63688;SDS011;54895;40.928;14.480;2023-05-07T06:58:25;37.47;;;22.85;;
63688;SDS011;54895;40.928;14.480;2023-05-07T07:00:53;36.13;;;21.92;;
63688;SDS011;54895;40.928;14.480;2023-05-07T07:03:20;36.78;;;22.83;;
63688;SDS011;54895;40.928;14.480;2023-05-07T07:05:51;30.67;;;20.88;;
63688;SDS011;54895;40.928;14.480;2023-05-07T07:08:20;33.92;;;21.27;;
63688;SDS011;54895;40.928;14.480;2023-05-07T07:10:49;35.75;;;22.17;;
63688;SDS011;54895;40.928;14.480;2023-05-07T07:13:16;33.25;;;21.10;;
63688;SDS011;54895;40.928;14.480;2023-05-07T07:15:44;36.83;;;22.58;;
63688;SDS011;54895;40.928;14.480;2023-05-07T07:18:11;32.65;;;21.58;;
63688;SDS011;54895;40.928;14.480;2023-05-07T07:20:39;31.52;;;19.25;;
63688;SDS011;54895;40.928;14.480;2023-05-07T07:23:08;33.42;;;21.23;;
63688;SDS011;54895;40.928;14.480;2023-05-07T07:25:36;32.85;;;21.00;;
63688;SDS011;54895;40.928;14.480;2023-05-07T07:32:03;31.97;;;20.70;;
63688;SDS011;54895;40.928;14.480;2023-05-07T07:34:31;31.85;;;18.98;;
63688;SDS011;54895;40.928;14.480;2023-05-07T07:36:58;33.60;;;21.63;;
63688;SDS011;54895;40.928;14.480;2023-05-07T07:39:25;37.20;;;23.17;;
63688;SDS011;54895;40.928;14.480;2023-05-07T07:41:55;30.50;;;19.77;;
63688;SDS011;54895;40.928;14.480;2023-05-07T07:44:22;29.17;;;18.92;;
63688;SDS011;54895;40.928;14.480;2023-05-07T07:46:53;29.13;;;18.80;;
63688;SDS011;54895;40.928;14.480;2023-05-07T07:49:23;30.75;;;20.05;;
63688;SDS011;54895;40.928;14.480;2023-05-07T07:51:50;30.52;;;21.05;;
63688;SDS011;54895;40.928;14.480;2023-05-07T07:54:17;31.83;;;20.05;;
63688;SDS011;54895;40.928;14.480;2023-05-07T07:56:45;35.35;;;21.70;;
63688;SDS011;54895;40.928;14.480;2023-05-07T07:59:14;29.38;;;19.65;;
63688;SDS011;54895;40.928;14.480;2023-05-07T08:01:45;31.55;;;20.02;;
63688;SDS011;54895;40.928;14.480;2023-05-07T08:04:17;29.45;;;20.35;;
63688;SDS011;54895;40.928;14.480;2023-05-07T08:06:45;27.80;;;18.10;;
63688;SDS011;54895;40.928;14.480;2023-05-07T08:09:12;28.20;;;17.65;;
63688;SDS011;54895;40.928;14.480;2023-05-07T08:11:41;28.88;;;17.77;;
63688;SDS011;54895;40.928;14.480;2023-05-07T08:14:08;27.92;;;17.55;;
63688;SDS011;54895;40.928;14.480;2023-05-07T08:16:36;30.35;;;17.65;;
63688;SDS011;54895;40.928;14.480;2023-05-07T08:19:03;25.98;;;17.40;;
63688;SDS011;54895;40.928;14.480;2023-05-07T08:21:31;25.05;;;17.33;;
63688;SDS011;54895;40.928;14.480;2023-05-07T08:23:58;27.05;;;17.65;;
63688;SDS011;54895;40.928;14.480;2023-05-07T08:26:26;26.42;;;17.63;;
63688;SDS011;54895;40.928;14.480;2023-05-07T08:36:10;26.52;;;15.82;;
63688;SDS011;54895;40.928;14.480;2023-05-07T08:38:42;25.75;;;16.73;;
63688;SDS011;54895;40.928;14.480;2023-05-07T08:54:20;22.27;;;13.65;;
63688;SDS011;54895;40.928;14.480;2023-05-07T08:56:48;25.48;;;17.00;;
63688;SDS011;54895;40.928;14.480;2023-05-07T08:59:18;23.67;;;15.38;;
63688;SDS011;54895;40.928;14.480;2023-05-07T09:02:30;28.90;;;17.08;;
63688;SDS011;54895;40.928;14.480;2023-05-07T09:08:56;24.08;;;15.50;;
63688;SDS011;54895;40.928;14.480;2023-05-07T09:12:43;25.15;;;17.25;;
63688;SDS011;54895;40.928;14.480;2023-05-07T09:16:13;28.08;;;16.70;;
63688;SDS011;54895;40.928;14.480;2023-05-07T09:18:45;23.90;;;16.95;;
63688;SDS011;54895;40.928;14.480;2023-05-07T09:22:35;22.17;;;16.10;;
63688;SDS011;54895;40.928;14.480;2023-05-07T09:34:41;23.80;;;15.23;;
63688;SDS011;54895;40.928;14.480;2023-05-07T09:37:44;27.02;;;17.58;;
63688;SDS011;54895;40.928;14.480;2023-05-07T09:44:33;26.85;;;16.80;;
63688;SDS011;54895;40.928;14.480;2023-05-07T09:48:18;24.23;;;15.82;;
63688;SDS011;54895;40.928;14.480;2023-05-07T10:22:50;25.52;;;16.63;;
63688;SDS011;54895;40.928;14.480;2023-05-07T10:26:45;26.58;;;17.55;;
63688;SDS011;54895;40.928;14.480;2023-05-07T10:36:34;23.83;;;16.42;;
63688;SDS011;54895;40.928;14.480;2023-05-07T10:39:37;22.52;;;15.43;;
63688;SDS011;54895;40.928;14.480;2023-05-07T10:43:16;21.35;;;13.45;;
63688;SDS011;54895;40.928;14.480;2023-05-07T10:46:19;22.95;;;13.95;;
63688;SDS011;54895;40.928;14.480;2023-05-07T10:53:25;20.17;;;13.95;;
63688;SDS011;54895;40.928;14.480;2023-05-07T10:56:40;17.48;;;13.55;;
63688;SDS011;54895;40.928;14.480;2023-05-07T11:02:05;21.65;;;14.13;;
63688;SDS011;54895;40.928;14.480;2023-05-07T11:06:16;22.80;;;14.10;;
63688;SDS011;54895;40.928;14.480;2023-05-07T11:13:15;16.52;;;11.73;;
63688;SDS011;54895;40.928;14.480;2023-05-07T11:15:53;17.25;;;11.23;;
63688;SDS011;54895;40.928;14.480;2023-05-07T11:22:43;15.05;;;10.73;;
63688;SDS011;54895;40.928;14.480;2023-05-07T11:25:34;15.95;;;10.73;;
63688;SDS011;54895;40.928;14.480;2023-05-07T11:28:13;18.83;;;12.05;;
63688;SDS011;54895;40.928;14.480;2023-05-07T11:30:47;15.05;;;11.93;;
63688;SDS011;54895;40.928;14.480;2023-05-07T11:33:17;16.20;;;12.13;;
63688;SDS011;54895;40.928;14.480;2023-05-07T11:35:47;15.55;;;12.07;;
63688;SDS011;54895;40.928;14.480;2023-05-07T11:38:17;14.82;;;10.93;;
63688;SDS011;54895;40.928;14.480;2023-05-07T11:40:53;13.68;;;9.13;;
63688;SDS011;54895;40.928;14.480;2023-05-07T11:43:21;13.23;;;9.05;;
63688;SDS011;54895;40.928;14.480;2023-05-07T11:45:48;12.13;;;7.43;;
63688;SDS011;54895;40.928;14.480;2023-05-07T11:48:16;10.05;;;6.93;;
63688;SDS011;54895;40.928;14.480;2023-05-07T11:50:51;14.10;;;9.85;;
63688;SDS011;54895;40.928;14.480;2023-05-07T11:53:24;13.32;;;10.10;;
63688;SDS011;54895;40.928;14.480;2023-05-07T11:55:53;14.65;;;9.23;;
63688;SDS011;54895;40.928;14.480;2023-05-07T11:58:23;13.93;;;9.10;;
63688;SDS011;54895;40.928;14.480;2023-05-07T12:00:52;9.32;;;7.43;;
63688;SDS011;54895;40.928;14.480;2023-05-07T12:03:19;11.15;;;7.50;;
63688;SDS011;54895;40.928;14.480;2023-05-07T12:06:12;9.43;;;6.80;;
63688;SDS011;54895;40.928;14.480;2023-05-07T12:08:41;8.07;;;6.55;;
63688;SDS011;54895;40.928;14.480;2023-05-07T12:11:10;8.35;;;5.85;;
63688;SDS011;54895;40.928;14.480;2023-05-07T12:13:40;8.13;;;6.03;;
63688;SDS011;54895;40.928;14.480;2023-05-07T12:16:09;8.43;;;5.57;;
63688;SDS011;54895;40.928;14.480;2023-05-07T12:18:36;9.48;;;5.57;;
63688;SDS011;54895;40.928;14.480;2023-05-07T12:21:04;8.00;;;5.38;;
63688;SDS011;54895;40.928;14.480;2023-05-07T12:23:33;5.88;;;5.18;;
63688;SDS011;54895;40.928;14.480;2023-05-07T12:26:02;6.18;;;4.68;;
63688;SDS011;54895;40.928;14.480;2023-05-07T12:28:31;8.48;;;5.05;;
63688;SDS011;54895;40.928;14.480;2023-05-07T12:31:04;5.47;;;4.47;;
63688;SDS011;54895;40.928;14.480;2023-05-07T12:33:33;5.93;;;4.43;;
63688;SDS011;54895;40.928;14.480;2023-05-07T12:36:05;4.93;;;3.83;;
63688;SDS011;54895;40.928;14.480;2023-05-07T12:38:39;5.05;;;4.32;;
63688;SDS011;54895;40.928;14.480;2023-05-07T12:41:10;5.70;;;4.28;;
63688;SDS011;54895;40.928;14.480;2023-05-07T12:43:38;5.93;;;4.07;;
63688;SDS011;54895;40.928;14.480;2023-05-07T12:46:06;6.30;;;4.63;;
63688;SDS011;54895;40.928;14.480;2023-05-07T12:48:35;4.70;;;3.80;;
63688;SDS011;54895;40.928;14.480;2023-05-07T12:51:04;9.05;;;4.05;;
63688;SDS011;54895;40.928;14.480;2023-05-07T12:53:32;6.65;;;5.38;;
63688;SDS011;54895;40.928;14.480;2023-05-07T12:56:00;7.30;;;5.65;;
63688;SDS011;54895;40.928;14.480;2023-05-07T12:58:27;6.70;;;5.40;;
63688;SDS011;54895;40.928;14.480;2023-05-07T13:00:57;7.18;;;6.00;;
63688;SDS011;54895;40.928;14.480;2023-05-07T13:03:28;8.70;;;6.32;;
63688;SDS011;54895;40.928;14.480;2023-05-07T13:06:03;7.13;;;5.95;;
63688;SDS011;54895;40.928;14.480;2023-05-07T13:08:33;7.90;;;6.30;;
63688;SDS011;54895;40.928;14.480;2023-05-07T13:11:04;8.73;;;6.05;;
63688;SDS011;54895;40.928;14.480;2023-05-07T13:13:31;8.73;;;6.70;;
63688;SDS011;54895;40.928;14.480;2023-05-07T13:16:03;9.05;;;5.82;;
63688;SDS011;54895;40.928;14.480;2023-05-07T13:18:32;6.35;;;5.50;;
63688;SDS011;54895;40.928;14.480;2023-05-07T13:21:00;7.20;;;5.90;;
63688;SDS011;54895;40.928;14.480;2023-05-07T13:23:30;9.13;;;5.70;;
63688;SDS011;54895;40.928;14.480;2023-05-07T13:25:56;8.10;;;6.47;;
63688;SDS011;54895;40.928;14.480;2023-05-07T13:32:40;5.90;;;5.00;;
63688;SDS011;54895;40.928;14.480;2023-05-07T13:35:07;6.63;;;5.18;;
63688;SDS011;54895;40.928;14.480;2023-05-07T13:37:35;6.82;;;5.20;;
63688;SDS011;54895;40.928;14.480;2023-05-07T13:40:05;6.75;;;4.53;;
63688;SDS011;54895;40.928;14.480;2023-05-07T13:42:33;7.25;;;4.03;;
63688;SDS011;54895;40.928;14.480;2023-05-07T13:45:00;5.38;;;3.97;;
63688;SDS011;54895;40.928;14.480;2023-05-07T13:47:29;4.93;;;3.80;;
63688;SDS011;54895;40.928;14.480;2023-05-07T13:49:57;3.80;;;3.40;;
63688;SDS011;54895;40.928;14.480;2023-05-07T13:52:30;5.60;;;3.70;;
63688;SDS011;54895;40.928;14.480;2023-05-07T13:55:08;5.82;;;3.25;;
63688;SDS011;54895;40.928;14.480;2023-05-07T13:57:37;4.15;;;3.08;;
63688;SDS011;54895;40.928;14.480;2023-05-07T14:00:05;7.57;;;3.45;;
63688;SDS011;54895;40.928;14.480;2023-05-07T14:02:41;3.63;;;3.00;;
63688;SDS011;54895;40.928;14.480;2023-05-07T14:05:08;3.92;;;3.05;;
63688;SDS011;54895;40.928;14.480;2023-05-07T14:07:39;4.25;;;2.80;;
63688;SDS011;54895;40.928;14.480;2023-05-07T14:10:14;2.75;;;2.40;;
63688;SDS011;54895;40.928;14.480;2023-05-07T14:12:43;4.03;;;2.60;;
63688;SDS011;54895;40.928;14.480;2023-05-07T14:17:46;3.35;;;2.40;;
63688;SDS011;54895;40.928;14.480;2023-05-07T14:20:31;2.67;;;2.13;;
63688;SDS011;54895;40.928;14.480;2023-05-07T14:22:59;3.83;;;2.20;;
63688;SDS011;54895;40.928;14.480;2023-05-07T14:25:27;5.10;;;2.10;;
63688;SDS011;54895;40.928;14.480;2023-05-07T14:27:55;3.25;;;2.08;;
63688;SDS011;54895;40.928;14.480;2023-05-07T14:30:31;3.63;;;2.00;;
63688;SDS011;54895;40.928;14.480;2023-05-07T14:33:12;3.13;;;2.08;;
63688;SDS011;54895;40.928;14.480;2023-05-07T14:35:47;2.78;;;2.00;;
63688;SDS011;54895;40.928;14.480;2023-05-07T14:38:16;2.65;;;1.80;;
63688;SDS011;54895;40.928;14.480;2023-05-07T14:40:44;3.13;;;1.70;;
63688;SDS011;54895;40.928;14.480;2023-05-07T14:43:12;2.72;;;2.00;;
63688;SDS011;54895;40.928;14.480;2023-05-07T14:45:41;2.58;;;1.73;;
63688;SDS011;54895;40.928;14.480;2023-05-07T14:48:09;3.28;;;1.77;;
63688;SDS011;54895;40.928;14.480;2023-05-07T14:50:53;4.25;;;1.60;;
63688;SDS011;54895;40.928;14.480;2023-05-07T14:53:21;2.53;;;1.58;;
63688;SDS011;54895;40.928;14.480;2023-05-07T14:55:49;4.30;;;2.17;;
63688;SDS011;54895;40.928;14.480;2023-05-07T14:58:17;1.67;;;1.30;;
63688;SDS011;54895;40.928;14.480;2023-05-07T15:00:45;3.00;;;1.58;;
63688;SDS011;54895;40.928;14.480;2023-05-07T15:03:13;2.05;;;1.58;;
63688;SDS011;54895;40.928;14.480;2023-05-07T15:05:43;2.25;;;1.77;;
63688;SDS011;54895;40.928;14.480;2023-05-07T15:08:10;2.85;;;1.77;;
63688;SDS011;54895;40.928;14.480;2023-05-07T15:10:38;1.60;;;1.50;;
63688;SDS011;54895;40.928;14.480;2023-05-07T15:13:10;1.30;;;1.20;;
63688;SDS011;54895;40.928;14.480;2023-05-07T15:15:38;2.45;;;1.70;;
63688;SDS011;54895;40.928;14.480;2023-05-07T15:18:06;2.28;;;1.67;;
63688;SDS011;54895;40.928;14.480;2023-05-07T15:20:33;4.38;;;1.80;;
63688;SDS011;54895;40.928;14.480;2023-05-07T15:23:00;3.45;;;1.55;;
63688;SDS011;54895;40.928;14.480;2023-05-07T15:25:27;3.80;;;1.80;;
63688;SDS011;54895;40.928;14.480;2023-05-07T15:27:54;2.72;;;1.80;;
63688;SDS011;54895;40.928;14.480;2023-05-07T15:30:22;2.03;;;1.58;;
63688;SDS011;54895;40.928;14.480;2023-05-07T15:32:49;1.40;;;1.30;;
63688;SDS011;54895;40.928;14.480;2023-05-07T15:35:16;1.90;;;1.63;;
63688;SDS011;54895;40.928;14.480;2023-05-07T15:37:48;1.65;;;1.42;;
63688;SDS011;54895;40.928;14.480;2023-05-07T15:40:19;2.95;;;1.70;;
63688;SDS011;54895;40.928;14.480;2023-05-07T15:42:45;2.42;;;1.77;;
63688;SDS011;54895;40.928;14.480;2023-05-07T15:45:13;3.13;;;1.60;;
63688;SDS011;54895;40.928;14.480;2023-05-07T15:47:40;3.40;;;1.77;;
63688;SDS011;54895;40.928;14.480;2023-05-07T15:50:07;2.17;;;1.75;;
63688;SDS011;54895;40.928;14.480;2023-05-07T15:52:36;2.65;;;1.50;;
63688;SDS011;54895;40.928;14.480;2023-05-07T15:55:07;3.80;;;1.80;;
63688;SDS011;54895;40.928;14.480;2023-05-07T15:57:35;3.85;;;1.60;;
63688;SDS011;54895;40.928;14.480;2023-05-07T16:00:02;1.83;;;1.65;;
63688;SDS011;54895;40.928;14.480;2023-05-07T16:02:38;2.92;;;1.80;;
63688;SDS011;54895;40.928;14.480;2023-05-07T16:05:06;2.28;;;1.70;;
63688;SDS011;54895;40.928;14.480;2023-05-07T16:07:37;2.63;;;1.70;;
63688;SDS011;54895;40.928;14.480;2023-05-07T16:10:04;2.00;;;1.80;;
63688;SDS011;54895;40.928;14.480;2023-05-07T16:12:31;3.35;;;1.60;;
63688;SDS011;54895;40.928;14.480;2023-05-07T16:14:58;2.10;;;1.90;;
63688;SDS011;54895;40.928;14.480;2023-05-07T16:17:26;2.53;;;2.08;;
63688;SDS011;54895;40.928;14.480;2023-05-07T16:19:52;5.20;;;1.90;;
63688;SDS011;54895;40.928;14.480;2023-05-07T16:22:19;6.80;;;2.13;;
63688;SDS011;54895;40.928;14.480;2023-05-07T16:24:47;1.77;;;1.63;;
63688;SDS011;54895;40.928;14.480;2023-05-07T16:27:13;3.67;;;1.52;;
63688;SDS011;54895;40.928;14.480;2023-05-07T16:29:40;3.15;;;1.85;;
63688;SDS011;54895;40.928;14.480;2023-05-07T16:32:08;4.55;;;1.88;;
63688;SDS011;54895;40.928;14.480;2023-05-07T16:34:35;2.20;;;1.30;;
63688;SDS011;54895;40.928;14.480;2023-05-07T16:37:02;1.98;;;1.23;;